Time;durP1;ratioP1;P1;durP2;ratioP2;P2;SDS_P1;SDS_P2;PMS_P1;PMS_P2;Temp;Humidity;BMP_temperature;BMP_pressure;BME280_temperature;BME280_humidity;BME280_pressure;Samples;Min_cycle;Max_cycle;Signal;HPM_P1;HPM_P2
2022/07/26 00:00:08;;;;;;;6.00;1.30;;;;;;;;;;510147;28;1349;-86
2022/07/26 00:00:24;;;;;;;4.97;1.30;;;;;;;;;;510218;29;1402;-85
2022/07/26 00:00:39;;;;;;;7.03;1.33;;;;;;;;;;510558;29;1382;-85
2022/07/26 00:00:54;;;;;;;7.28;1.38;;;;;;;;;;512237;28;1212;-86
2022/07/26 00:01:10;;;;;;;6.27;1.30;;;;;;;;;;511940;28;1221;-85
2022/07/26 00:01:25;;;;;;;6.27;1.20;;;;;;;;;;512067;29;747;-85
2022/07/26 00:01:47;;;;;;;5.40;1.40;;;;;;;;;;509918;28;1392;-86
2022/07/26 00:02:03;;;;;;;5.82;1.40;;;;;;;;;;510655;28;964;-86
2022/07/26 00:02:18;;;;;;;5.63;1.30;;;;;;;;;;513115;28;1344;-85
2022/07/26 00:02:33;;;;;;;5.78;1.20;;;;;;;;;;508982;29;1295;-86
2022/07/26 00:02:49;;;;;;;6.10;1.20;;;;;;;;;;506957;29;1019;-85
2022/07/26 00:03:04;;;;;;;5.18;1.20;;;;;;;;;;507142;29;845;-85
2022/07/26 00:03:20;;;;;;;4.77;1.27;;;;;;;;;;509992;29;1914;-85
2022/07/26 00:03:35;;;;;;;4.43;1.40;;;;;;;;;;510950;29;1227;-86
2022/07/26 00:03:51;;;;;;;5.25;1.50;;;;;;;;;;509747;29;1341;-85
2022/07/26 00:04:06;;;;;;;7.57;1.50;;;;;;;;;;510161;29;1318;-85
2022/07/26 00:04:22;;;;;;;6.78;1.30;;;;;;;;;;510269;29;1295;-85
2022/07/26 00:04:37;;;;;;;3.37;1.20;;;;;;;;;;510655;29;1190;-85
2022/07/26 00:04:52;;;;;;;4.30;1.30;;;;;;;;;;508790;29;1436;-85
2022/07/26 00:05:08;;;;;;;5.32;1.40;;;;;;;;;;507923;29;1210;-86
2022/07/26 00:05:23;;;;;;;4.87;1.30;;;;;;;;;;507794;29;1381;-85
2022/07/26 00:05:39;;;;;;;6.15;1.35;;;;;;;;;;505823;29;1435;-85
2022/07/26 00:05:54;;;;;;;7.00;1.40;;;;;;;;;;506079;29;1005;-85
2022/07/26 00:06:10;;;;;;;12.13;1.63;;;;;;;;;;507821;29;1473;-85
2022/07/26 00:06:25;;;;;;;11.20;1.63;;;;;;;;;;508792;29;1405;-85
2022/07/26 00:06:41;;;;;;;3.78;1.20;;;;;;;;;;509776;29;1433;-86
2022/07/26 00:06:56;;;;;;;3.50;1.10;;;;;;;;;;507108;29;1378;-85
2022/07/26 00:07:12;;;;;;;5.65;1.30;;;;;;;;;;508661;29;1051;-85
2022/07/26 00:07:27;;;;;;;6.77;1.30;;;;;;;;;;506549;29;1437;-85
2022/07/26 00:07:44;;;;;;;4.68;1.15;;;;;;;;;;508000;29;1325;-85
2022/07/26 00:08:12;;;;;;;4.47;1.20;;;;;;;;;;509383;29;1265;-85
2022/07/26 00:08:27;;;;;;;5.32;1.25;;;;;;;;;;512183;29;1280;-85
2022/07/26 00:08:43;;;;;;;5.83;1.43;;;;;;;;;;510101;29;1194;-85
2022/07/26 00:08:58;;;;;;;8.55;1.58;;;;;;;;;;510062;29;1512;-85
2022/07/26 00:09:14;;;;;;;5.95;1.55;;;;;;;;;;512231;29;1372;-85
2022/07/26 00:09:29;;;;;;;5.30;1.43;;;;;;;;;;511799;29;844;-85
2022/07/26 00:09:45;;;;;;;5.33;1.30;;;;;;;;;;510905;29;1202;-87
2022/07/26 00:10:00;;;;;;;5.93;1.30;;;;;;;;;;508378;29;1201;-85
2022/07/26 00:10:15;;;;;;;5.30;1.27;;;;;;;;;;508133;29;1212;-85
2022/07/26 00:10:31;;;;;;;5.18;1.30;;;;;;;;;;508547;29;900;-85
2022/07/26 00:10:49;;;;;;;5.50;1.30;;;;;;;;;;510092;29;849;-85
2022/07/26 00:11:05;;;;;;;6.07;1.30;;;;;;;;;;509765;29;1448;-85
2022/07/26 00:11:21;;;;;;;5.15;1.17;;;;;;;;;;509969;29;1315;-85
2022/07/26 00:11:36;;;;;;;4.53;1.20;;;;;;;;;;507818;29;1393;-84
2022/07/26 00:11:52;;;;;;;6.43;1.27;;;;;;;;;;506998;29;988;-85
2022/07/26 00:12:08;;;;;;;5.82;1.33;;;;;;;;;;508740;29;1402;-85
2022/07/26 00:12:23;;;;;;;4.72;1.23;;;;;;;;;;508835;29;1421;-85
2022/07/26 00:12:39;;;;;;;4.17;1.23;;;;;;;;;;508179;29;1215;-85
2022/07/26 00:12:54;;;;;;;4.93;1.38;;;;;;;;;;506578;29;1187;-85
2022/07/26 00:13:10;;;;;;;5.30;1.23;;;;;;;;;;507561;29;1241;-85
2022/07/26 00:13:26;;;;;;;4.80;1.10;;;;;;;;;;506757;29;890;-85
2022/07/26 00:13:41;;;;;;;4.57;1.07;;;;;;;;;;508312;29;1178;-85
2022/07/26 00:13:57;;;;;;;3.80;1.10;;;;;;;;;;507818;29;1183;-85
2022/07/26 00:14:12;;;;;;;3.87;1.20;;;;;;;;;;508994;29;976;-85
2022/07/26 00:14:28;;;;;;;3.73;1.17;;;;;;;;;;510111;29;1335;-84
2022/07/26 00:14:43;;;;;;;3.58;1.20;;;;;;;;;;508893;29;1320;-85
2022/07/26 00:14:59;;;;;;;4.97;1.33;;;;;;;;;;511087;29;881;-84
2022/07/26 00:15:14;;;;;;;5.57;1.30;;;;;;;;;;510333;29;1246;-85
2022/07/26 00:15:30;;;;;;;4.93;1.20;;;;;;;;;;510461;29;1028;-85
2022/07/26 00:15:47;;;;;;;4.35;1.23;;;;;;;;;;508769;29;1222;-84
2022/07/26 00:16:03;;;;;;;4.20;1.25;;;;;;;;;;508237;29;1330;-85
2022/07/26 00:16:19;;;;;;;3.92;1.20;;;;;;;;;;508522;29;1273;-85
2022/07/26 00:16:36;;;;;;;4.07;1.13;;;;;;;;;;511339;29;1307;-85
2022/07/26 00:16:51;;;;;;;4.15;1.30;;;;;;;;;;511964;29;1265;-85
2022/07/26 00:17:07;;;;;;;4.10;1.30;;;;;;;;;;511989;28;1323;-85
2022/07/26 00:17:22;;;;;;;3.88;1.13;;;;;;;;;;513915;28;1275;-85
2022/07/26 00:17:38;;;;;;;4.73;1.20;;;;;;;;;;514693;28;1275;-86
2022/07/26 00:17:54;;;;;;;5.68;1.30;;;;;;;;;;511898;28;1425;-86
2022/07/26 00:18:09;;;;;;;6.10;1.30;;;;;;;;;;508669;29;1202;-86
2022/07/26 00:18:25;;;;;;;5.27;1.20;;;;;;;;;;510239;29;1322;-85
2022/07/26 00:18:41;;;;;;;5.15;1.20;;;;;;;;;;508222;29;1198;-85
2022/07/26 00:18:57;;;;;;;4.57;1.20;;;;;;;;;;507772;29;1215;-85
2022/07/26 00:19:12;;;;;;;4.22;1.10;;;;;;;;;;508445;29;896;-85
2022/07/26 00:19:28;;;;;;;5.63;1.07;;;;;;;;;;510551;29;1190;-85
2022/07/26 00:19:43;;;;;;;4.67;1.10;;;;;;;;;;510360;29;983;-86
2022/07/26 00:19:58;;;;;;;3.00;1.05;;;;;;;;;;510958;29;1056;-85
2022/07/26 00:20:14;;;;;;;3.30;1.00;;;;;;;;;;513279;29;1287;-85
2022/07/26 00:20:29;;;;;;;4.70;1.30;;;;;;;;;;512272;29;1268;-84
2022/07/26 00:20:45;;;;;;;5.90;1.48;;;;;;;;;;512664;28;920;-85
2022/07/26 00:21:01;;;;;;;6.57;1.23;;;;;;;;;;512258;28;1267;-85
2022/07/26 00:21:16;;;;;;;6.65;1.20;;;;;;;;;;512370;29;1074;-85
2022/07/26 00:21:35;;;;;;;7.37;1.30;;;;;;;;;;512136;29;896;-85
2022/07/26 00:22:32;;;;;;;5.68;1.35;;;;;;;;;;510335;29;1393;-85
2022/07/26 00:22:35;;;;;;;4.43;1.20;;;;;;;;;;510206;29;1009;-85
2022/07/26 00:22:50;;;;;;;4.60;1.27;;;;;;;;;;511911;29;1268;-85
2022/07/26 00:23:06;;;;;;;3.97;1.15;;;;;;;;;;511858;29;960;-85
2022/07/26 00:23:21;;;;;;;5.25;1.25;;;;;;;;;;510296;29;1956;-85
2022/07/26 00:23:37;;;;;;;5.93;1.40;;;;;;;;;;510295;29;1307;-86
2022/07/26 00:23:53;;;;;;;3.88;1.20;;;;;;;;;;509898;29;1198;-85
2022/07/26 00:24:08;;;;;;;5.60;1.20;;;;;;;;;;508028;29;1207;-86
2022/07/26 00:24:24;;;;;;;5.28;1.30;;;;;;;;;;508299;29;1186;-85
2022/07/26 00:24:40;;;;;;;5.75;1.33;;;;;;;;;;508510;29;1320;-85
2022/07/26 00:24:55;;;;;;;6.37;1.23;;;;;;;;;;508139;29;797;-86
2022/07/26 00:25:11;;;;;;;4.20;1.10;;;;;;;;;;510212;29;1292;-85
2022/07/26 00:25:26;;;;;;;3.50;1.17;;;;;;;;;;511159;29;1036;-85
2022/07/26 00:25:42;;;;;;;5.82;1.10;;;;;;;;;;510402;29;1221;-85
2022/07/26 00:25:57;;;;;;;6.13;1.10;;;;;;;;;;510341;29;1337;-85
2022/07/26 00:26:13;;;;;;;4.93;1.10;;;;;;;;;;510185;29;853;-86
2022/07/26 00:26:29;;;;;;;4.97;1.07;;;;;;;;;;510200;29;857;-85
2022/07/26 00:26:44;;;;;;;5.30;1.30;;;;;;;;;;510247;29;845;-85
2022/07/26 00:26:59;;;;;;;5.55;1.38;;;;;;;;;;510247;29;1170;-85
2022/07/26 00:27:15;;;;;;;5.60;1.20;;;;;;;;;;510193;29;1340;-85
2022/07/26 00:27:31;;;;;;;5.95;1.10;;;;;;;;;;510492;29;1586;-85
2022/07/26 00:27:46;;;;;;;5.40;1.23;;;;;;;;;;512655;28;866;-85
2022/07/26 00:28:02;;;;;;;7.25;1.30;;;;;;;;;;513328;28;1325;-85
2022/07/26 00:28:18;;;;;;;7.25;1.27;;;;;;;;;;514231;28;833;-85
2022/07/26 00:28:34;;;;;;;5.53;1.20;;;;;;;;;;514185;28;844;-85
2022/07/26 00:28:49;;;;;;;4.13;1.13;;;;;;;;;;511291;29;1385;-85
2022/07/26 00:29:05;;;;;;;4.32;1.10;;;;;;;;;;509794;29;1330;-86
2022/07/26 00:29:20;;;;;;;4.40;1.10;;;;;;;;;;507989;29;1206;-85
2022/07/26 00:29:35;;;;;;;5.27;1.20;;;;;;;;;;506860;29;1189;-86
2022/07/26 00:29:51;;;;;;;6.60;1.30;;;;;;;;;;506984;29;860;-85
2022/07/26 00:30:08;;;;;;;4.53;1.17;;;;;;;;;;508284;29;1447;-85
2022/07/26 00:30:25;;;;;;;4.70;1.20;;;;;;;;;;508526;29;1327;-85
2022/07/26 00:30:40;;;;;;;4.55;1.30;;;;;;;;;;510848;29;1257;-85
2022/07/26 00:30:56;;;;;;;5.10;1.30;;;;;;;;;;511072;29;920;-85
2022/07/26 00:31:11;;;;;;;4.43;1.10;;;;;;;;;;510823;29;1235;-85
2022/07/26 00:31:27;;;;;;;4.30;1.00;;;;;;;;;;511697;29;845;-85
2022/07/26 00:31:42;;;;;;;4.70;1.00;;;;;;;;;;510233;29;1281;-86
2022/07/26 00:31:58;;;;;;;4.13;1.10;;;;;;;;;;511111;28;1246;-85
2022/07/26 00:32:13;;;;;;;4.78;1.00;;;;;;;;;;510514;29;1269;-85
2022/07/26 00:32:28;;;;;;;4.87;1.10;;;;;;;;;;509894;29;1264;-85
2022/07/26 00:32:44;;;;;;;3.95;1.17;;;;;;;;;;508686;29;980;-86
2022/07/26 00:32:59;;;;;;;3.97;1.10;;;;;;;;;;512536;29;1301;-85
2022/07/26 00:33:15;;;;;;;4.72;1.20;;;;;;;;;;512659;29;1290;-86
2022/07/26 00:33:30;;;;;;;5.80;1.13;;;;;;;;;;512086;28;1363;-85
2022/07/26 00:33:49;;;;;;;6.20;1.15;;;;;;;;;;512017;29;1285;-85
2022/07/26 00:34:04;;;;;;;6.72;1.15;;;;;;;;;;511059;29;876;-86
2022/07/26 00:34:20;;;;;;;6.57;1.17;;;;;;;;;;512075;29;1205;-85
2022/07/26 00:34:35;;;;;;;3.95;1.10;;;;;;;;;;513605;28;1229;-85
2022/07/26 00:34:51;;;;;;;4.47;1.20;;;;;;;;;;515255;28;915;-85
2022/07/26 00:35:07;;;;;;;4.80;1.20;;;;;;;;;;512898;28;1469;-85
2022/07/26 00:35:22;;;;;;;4.13;1.08;;;;;;;;;;513312;28;1265;-86
2022/07/26 00:35:38;;;;;;;3.40;1.10;;;;;;;;;;512044;29;1319;-85
2022/07/26 00:35:53;;;;;;;3.20;1.00;;;;;;;;;;512708;29;1166;-86
2022/07/26 00:36:09;;;;;;;3.53;1.03;;;;;;;;;;510678;29;1308;-85
2022/07/26 00:36:24;;;;;;;3.63;1.13;;;;;;;;;;509936;29;948;-86
2022/07/26 00:36:40;;;;;;;3.33;1.20;;;;;;;;;;510097;29;865;-85
2022/07/26 00:36:55;;;;;;;4.05;1.10;;;;;;;;;;509799;29;1281;-85
2022/07/26 00:37:10;;;;;;;4.23;1.10;;;;;;;;;;509878;29;1154;-86
2022/07/26 00:37:26;;;;;;;4.73;1.10;;;;;;;;;;508173;29;1142;-86
2022/07/26 00:37:41;;;;;;;4.60;1.20;;;;;;;;;;508964;29;924;-85
2022/07/26 00:37:57;;;;;;;3.17;1.07;;;;;;;;;;512128;29;893;-85
2022/07/26 00:38:13;;;;;;;3.40;1.20;;;;;;;;;;512400;29;1160;-85
2022/07/26 00:38:28;;;;;;;3.22;1.20;;;;;;;;;;512413;29;1306;-86
2022/07/26 00:38:43;;;;;;;3.60;1.00;;;;;;;;;;512084;29;1479;-86
2022/07/26 00:38:59;;;;;;;3.83;1.00;;;;;;;;;;512017;28;1169;-85
2022/07/26 00:39:14;;;;;;;4.20;1.10;;;;;;;;;;510432;29;1343;-85
2022/07/26 00:39:29;;;;;;;6.17;1.20;;;;;;;;;;513604;28;1301;-85
2022/07/26 00:39:45;;;;;;;6.07;1.20;;;;;;;;;;514087;28;1174;-85
2022/07/26 00:40:00;;;;;;;5.57;1.13;;;;;;;;;;512432;28;1179;-85
2022/07/26 00:40:16;;;;;;;5.00;1.10;;;;;;;;;;510336;29;1288;-85
2022/07/26 00:40:32;;;;;;;4.55;1.17;;;;;;;;;;508180;29;1569;-86
2022/07/26 00:40:47;;;;;;;5.20;1.20;;;;;;;;;;508454;29;1303;-85
2022/07/26 00:41:04;;;;;;;6.43;1.23;;;;;;;;;;506969;29;1174;-86
2022/07/26 00:41:19;;;;;;;6.07;1.30;;;;;;;;;;506492;29;1227;-85
2022/07/26 00:41:35;;;;;;;5.50;1.40;;;;;;;;;;510543;29;1343;-86
2022/07/26 00:41:50;;;;;;;5.75;1.30;;;;;;;;;;511776;29;1340;-85
2022/07/26 00:42:05;;;;;;;4.30;1.10;;;;;;;;;;510512;29;1258;-86
2022/07/26 00:42:21;;;;;;;4.57;1.03;;;;;;;;;;510582;29;889;-85
2022/07/26 00:42:36;;;;;;;5.18;1.05;;;;;;;;;;510816;29;1159;-85
2022/07/26 00:42:52;;;;;;;4.60;1.10;;;;;;;;;;512771;29;876;-85
2022/07/26 00:43:07;;;;;;;5.57;1.20;;;;;;;;;;512741;28;1158;-85
2022/07/26 00:43:22;;;;;;;6.03;1.25;;;;;;;;;;514862;28;1919;-85
2022/07/26 00:43:53;;;;;;;6.23;1.30;;;;;;;;;;510775;29;1390;-84
2022/07/26 00:44:08;;;;;;;4.53;1.20;;;;;;;;;;510512;29;936;-86
2022/07/26 00:44:24;;;;;;;2.97;1.10;;;;;;;;;;509828;29;1733;-86
2022/07/26 00:44:41;;;;;;;2.83;1.00;;;;;;;;;;510333;29;1312;-86
2022/07/26 00:44:57;;;;;;;3.17;1.00;;;;;;;;;;510591;29;1358;-86
2022/07/26 00:45:13;;;;;;;4.07;1.13;;;;;;;;;;512098;29;1326;-86
2022/07/26 00:45:28;;;;;;;5.35;1.30;;;;;;;;;;513122;28;1264;-85
2022/07/26 00:45:44;;;;;;;4.38;1.23;;;;;;;;;;514978;28;984;-86
2022/07/26 00:45:59;;;;;;;3.70;1.03;;;;;;;;;;513841;28;1259;-86
2022/07/26 00:46:15;;;;;;;4.18;0.95;;;;;;;;;;511077;29;1300;-87
2022/07/26 00:46:30;;;;;;;3.80;1.00;;;;;;;;;;511298;29;1411;-86
2022/07/26 00:46:46;;;;;;;4.25;1.10;;;;;;;;;;513026;28;1160;-87
2022/07/26 00:47:01;;;;;;;4.20;1.20;;;;;;;;;;512577;29;1420;-85
2022/07/26 00:47:17;;;;;;;5.07;1.27;;;;;;;;;;510578;29;1181;-85
2022/07/26 00:47:33;;;;;;;4.63;1.30;;;;;;;;;;509849;29;1102;-85
2022/07/26 00:47:49;;;;;;;4.10;1.27;;;;;;;;;;506581;29;1205;-85
2022/07/26 00:48:04;;;;;;;4.15;1.10;;;;;;;;;;504743;29;1475;-85
2022/07/26 00:48:20;;;;;;;3.40;1.20;;;;;;;;;;506091;29;1027;-86
2022/07/26 00:48:35;;;;;;;4.10;1.30;;;;;;;;;;506641;29;1197;-85
2022/07/26 00:48:51;;;;;;;4.53;1.20;;;;;;;;;;507648;29;1256;-86
2022/07/26 00:49:06;;;;;;;5.57;1.20;;;;;;;;;;508685;29;1208;-85
2022/07/26 00:49:22;;;;;;;5.05;1.20;;;;;;;;;;510572;29;960;-85
2022/07/26 00:49:37;;;;;;;3.27;1.20;;;;;;;;;;510826;29;829;-86
2022/07/26 00:49:52;;;;;;;3.47;1.20;;;;;;;;;;512972;28;875;-85
2022/07/26 00:50:11;;;;;;;4.73;1.10;;;;;;;;;;512473;28;1172;-86
2022/07/26 00:50:26;;;;;;;5.03;1.00;;;;;;;;;;509910;29;1264;-85
2022/07/26 00:50:42;;;;;;;3.80;0.97;;;;;;;;;;510494;29;1116;-86
2022/07/26 00:50:57;;;;;;;4.20;1.00;;;;;;;;;;510818;29;1236;-86
2022/07/26 00:51:13;;;;;;;5.17;1.10;;;;;;;;;;510576;29;959;-85
2022/07/26 00:51:29;;;;;;;4.53;1.23;;;;;;;;;;511206;29;1545;-85
2022/07/26 00:51:44;;;;;;;2.83;1.17;;;;;;;;;;510361;29;1345;-86
2022/07/26 00:51:59;;;;;;;3.90;1.10;;;;;;;;;;511240;29;840;-85
2022/07/26 00:52:16;;;;;;;4.03;1.08;;;;;;;;;;512429;29;1059;-86
2022/07/26 00:52:31;;;;;;;2.97;1.20;;;;;;;;;;511830;29;942;-86
2022/07/26 00:52:48;;;;;;;3.80;1.30;;;;;;;;;;510006;29;1335;-85
2022/07/26 00:53:04;;;;;;;4.03;1.20;;;;;;;;;;510568;29;1402;-85
2022/07/26 00:53:21;;;;;;;3.77;1.20;;;;;;;;;;508465;29;1201;-86
2022/07/26 00:53:37;;;;;;;3.85;1.23;;;;;;;;;;507845;29;1274;-86
2022/07/26 00:53:52;;;;;;;3.37;1.30;;;;;;;;;;510240;29;1248;-86
2022/07/26 00:54:08;;;;;;;2.80;1.27;;;;;;;;;;508233;29;1202;-85
2022/07/26 00:54:23;;;;;;;3.15;1.17;;;;;;;;;;504814;29;853;-85
2022/07/26 00:54:45;;;;;;;3.93;1.30;;;;;;;;;;505422;29;1312;-86
2022/07/26 00:55:01;;;;;;;3.45;1.25;;;;;;;;;;505523;29;1368;-85
2022/07/26 00:55:17;;;;;;;4.38;1.38;;;;;;;;;;508035;29;1456;-85
2022/07/26 00:55:33;;;;;;;5.47;1.40;;;;;;;;;;509797;29;1463;-85
2022/07/26 00:55:49;;;;;;;5.35;1.50;;;;;;;;;;508392;29;1205;-86
2022/07/26 00:56:04;;;;;;;4.97;1.40;;;;;;;;;;507284;29;1366;-86
2022/07/26 00:56:20;;;;;;;5.77;1.20;;;;;;;;;;506832;29;1566;-85
2022/07/26 00:56:37;;;;;;;5.00;1.10;;;;;;;;;;507149;29;952;-86
2022/07/26 00:56:53;;;;;;;4.78;1.20;;;;;;;;;;506083;29;1227;-85
2022/07/26 00:57:08;;;;;;;5.03;1.35;;;;;;;;;;506697;29;940;-86
2022/07/26 00:57:24;;;;;;;4.80;1.30;;;;;;;;;;506887;29;901;-86
2022/07/26 00:57:40;;;;;;;7.05;1.50;;;;;;;;;;509147;29;1435;-85
2022/07/26 00:57:55;;;;;;;6.20;1.50;;;;;;;;;;509034;29;1325;-85
2022/07/26 00:58:12;;;;;;;4.18;1.25;;;;;;;;;;508413;29;1277;-85
2022/07/26 00:58:27;;;;;;;5.25;1.30;;;;;;;;;;504354;29;1377;-85
2022/07/26 00:58:43;;;;;;;4.37;1.30;;;;;;;;;;505800;29;1163;-85
2022/07/26 00:59:00;;;;;;;4.70;1.25;;;;;;;;;;504420;29;1324;-86
2022/07/26 00:59:15;;;;;;;5.35;1.35;;;;;;;;;;506721;29;849;-86
2022/07/26 00:59:31;;;;;;;4.68;1.30;;;;;;;;;;506742;29;1083;-86
2022/07/26 00:59:47;;;;;;;4.00;1.30;;;;;;;;;;508301;29;1301;-86
2022/07/26 01:00:08;;;;;;;4.20;1.25;;;;;;;;;;508956;29;1312;-86
2022/07/26 01:00:27;;;;;;;4.78;1.30;;;;;;;;;;511537;29;993;-86
2022/07/26 01:00:44;;;;;;;4.95;1.30;;;;;;;;;;512083;29;872;-86
2022/07/26 01:00:59;;;;;;;5.55;1.50;;;;;;;;;;510540;29;1242;-85
2022/07/26 01:01:14;;;;;;;4.33;1.40;;;;;;;;;;511446;29;1174;-85
2022/07/26 01:01:30;;;;;;;4.00;1.23;;;;;;;;;;508571;29;1170;-85
2022/07/26 01:01:46;;;;;;;4.00;1.20;;;;;;;;;;506750;29;1324;-86
2022/07/26 01:02:03;;;;;;;4.25;1.13;;;;;;;;;;510867;29;1290;-86
2022/07/26 01:02:18;;;;;;;4.00;1.27;;;;;;;;;;508514;29;1360;-85
2022/07/26 01:02:33;;;;;;;3.92;1.30;;;;;;;;;;508582;29;971;-86
2022/07/26 01:02:49;;;;;;;3.57;1.23;;;;;;;;;;510437;29;1233;-85
2022/07/26 01:03:05;;;;;;;3.55;1.48;;;;;;;;;;508488;29;1226;-86
2022/07/26 01:03:20;;;;;;;4.13;1.50;;;;;;;;;;512224;29;1907;-85
2022/07/26 01:03:35;;;;;;;4.60;1.30;;;;;;;;;;510461;29;1174;-86
2022/07/26 01:03:52;;;;;;;4.40;1.33;;;;;;;;;;509269;29;1217;-86
2022/07/26 01:04:08;;;;;;;4.88;1.30;;;;;;;;;;510432;29;1283;-87
2022/07/26 01:04:23;;;;;;;4.28;1.27;;;;;;;;;;510297;29;896;-86
2022/07/26 01:04:40;;;;;;;4.67;1.30;;;;;;;;;;507021;29;1233;-86
2022/07/26 01:04:55;;;;;;;5.50;1.27;;;;;;;;;;508200;29;1461;-85
2022/07/26 01:05:11;;;;;;;5.10;1.25;;;;;;;;;;508299;29;1225;-85
2022/07/26 01:05:27;;;;;;;6.55;1.35;;;;;;;;;;508984;29;845;-86
2022/07/26 01:05:42;;;;;;;6.05;1.30;;;;;;;;;;510235;29;805;-86
2022/07/26 01:05:58;;;;;;;3.87;1.10;;;;;;;;;;510978;29;1356;-86
2022/07/26 01:06:13;;;;;;;4.03;1.10;;;;;;;;;;512506;29;1232;-86
2022/07/26 01:06:29;;;;;;;3.80;1.30;;;;;;;;;;513741;28;1198;-86
2022/07/26 01:06:46;;;;;;;3.72;1.20;;;;;;;;;;511666;28;1340;-86
2022/07/26 01:07:03;;;;;;;3.70;1.25;;;;;;;;;;512396;29;1521;-86
2022/07/26 01:07:18;;;;;;;5.07;1.50;;;;;;;;;;513274;29;857;-86
2022/07/26 01:07:35;;;;;;;5.23;1.40;;;;;;;;;;512482;29;1280;-85
2022/07/26 01:07:52;;;;;;;3.45;1.25;;;;;;;;;;510496;29;1318;-85
2022/07/26 01:08:07;;;;;;;3.72;1.20;;;;;;;;;;507756;29;1253;-85
2022/07/26 01:08:22;;;;;;;3.78;1.20;;;;;;;;;;506849;29;810;-83
2022/07/26 01:08:38;;;;;;;4.73;1.30;;;;;;;;;;506796;29;1192;-83
2022/07/26 01:08:54;;;;;;;4.55;1.25;;;;;;;;;;506909;29;853;-83
2022/07/26 01:09:10;;;;;;;3.65;1.35;;;;;;;;;;507200;29;1387;-83
2022/07/26 01:09:26;;;;;;;5.10;1.58;;;;;;;;;;505571;29;1226;-83
2022/07/26 01:09:41;;;;;;;4.57;1.47;;;;;;;;;;506858;29;1280;-83
2022/07/26 01:10:00;;;;;;;4.20;1.38;;;;;;;;;;508126;29;735;-83
2022/07/26 01:10:16;;;;;;;5.60;1.30;;;;;;;;;;509009;29;975;-83
2022/07/26 01:10:31;;;;;;;4.53;1.30;;;;;;;;;;509605;29;895;-83
2022/07/26 01:10:47;;;;;;;4.60;1.30;;;;;;;;;;510489;29;1370;-83
2022/07/26 01:11:02;;;;;;;4.83;1.30;;;;;;;;;;509713;29;888;-83
2022/07/26 01:11:18;;;;;;;3.58;1.30;;;;;;;;;;507734;29;1192;-83
2022/07/26 01:11:33;;;;;;;3.27;1.20;;;;;;;;;;511176;29;1198;-83
2022/07/26 01:11:49;;;;;;;3.83;1.30;;;;;;;;;;508792;29;1341;-83
2022/07/26 01:12:05;;;;;;;4.15;1.40;;;;;;;;;;508833;29;1039;-83
2022/07/26 01:12:20;;;;;;;4.70;1.70;;;;;;;;;;506655;29;1399;-83
2022/07/26 01:12:35;;;;;;;4.10;1.70;;;;;;;;;;507614;29;1099;-83
2022/07/26 01:12:51;;;;;;;3.53;1.53;;;;;;;;;;506717;29;1303;-83
2022/07/26 01:13:06;;;;;;;3.90;1.60;;;;;;;;;;507329;29;896;-83
2022/07/26 01:13:22;;;;;;;4.25;1.70;;;;;;;;;;508400;29;1190;-83
2022/07/26 01:13:45;;;;;;;4.10;1.50;;;;;;;;;;508887;29;1175;-83
2022/07/26 01:14:00;;;;;;;3.83;1.30;;;;;;;;;;511136;29;928;-83
2022/07/26 01:14:22;;;;;;;4.25;1.50;;;;;;;;;;512426;29;1083;-83
2022/07/26 01:14:43;;;;;;;4.50;1.48;;;;;;;;;;512648;28;1226;-83
2022/07/26 01:14:58;;;;;;;2.97;1.40;;;;;;;;;;513072;29;1466;-83
2022/07/26 01:15:15;;;;;;;2.87;1.33;;;;;;;;;;512907;29;1019;-83
2022/07/26 01:15:30;;;;;;;3.88;1.42;;;;;;;;;;512666;29;1346;-83
2022/07/26 01:15:46;;;;;;;3.40;1.40;;;;;;;;;;512911;29;932;-83
2022/07/26 01:16:02;;;;;;;2.80;1.30;;;;;;;;;;512572;29;990;-82
2022/07/26 01:16:17;;;;;;;3.28;1.40;;;;;;;;;;512278;29;865;-82
2022/07/26 01:16:33;;;;;;;2.92;1.38;;;;;;;;;;513060;28;1169;-82
2022/07/26 01:16:51;;;;;;;2.80;1.40;;;;;;;;;;513140;29;813;-82
2022/07/26 01:17:06;;;;;;;3.33;1.55;;;;;;;;;;512580;29;1265;-82
2022/07/26 01:17:22;;;;;;;3.25;1.50;;;;;;;;;;512776;29;841;-82
2022/07/26 01:17:37;;;;;;;3.17;1.50;;;;;;;;;;511247;29;1184;-83
2022/07/26 01:17:53;;;;;;;2.83;1.55;;;;;;;;;;508893;29;1482;-83
2022/07/26 01:18:08;;;;;;;3.40;1.50;;;;;;;;;;510948;29;1189;-83
2022/07/26 01:18:24;;;;;;;4.25;1.40;;;;;;;;;;510673;29;1321;-83
2022/07/26 01:18:39;;;;;;;3.40;1.30;;;;;;;;;;510323;29;1275;-83
2022/07/26 01:18:55;;;;;;;3.10;1.40;;;;;;;;;;512104;29;1315;-83
2022/07/26 01:19:10;;;;;;;4.67;1.47;;;;;;;;;;512880;29;1108;-83
2022/07/26 01:19:25;;;;;;;6.87;1.53;;;;;;;;;;510787;29;1328;-83
2022/07/26 01:19:41;;;;;;;5.68;1.60;;;;;;;;;;509159;29;1249;-83
2022/07/26 01:19:57;;;;;;;4.17;1.60;;;;;;;;;;506605;29;1193;-83
2022/07/26 01:20:12;;;;;;;4.53;1.52;;;;;;;;;;507240;29;1288;-83
2022/07/26 01:20:28;;;;;;;4.03;1.33;;;;;;;;;;506020;29;1308;-83
2022/07/26 01:20:44;;;;;;;4.00;1.35;;;;;;;;;;506967;29;1360;-83
2022/07/26 01:21:02;;;;;;;4.35;1.50;;;;;;;;;;507112;29;1048;-83
2022/07/26 01:21:18;;;;;;;5.15;1.40;;;;;;;;;;507270;29;869;-83
2022/07/26 01:21:33;;;;;;;5.85;1.60;;;;;;;;;;511356;29;1352;-83
2022/07/26 01:21:50;;;;;;;4.33;1.53;;;;;;;;;;513129;29;1367;-83
2022/07/26 01:22:06;;;;;;;3.72;1.35;;;;;;;;;;510637;29;1403;-83
2022/07/26 01:22:21;;;;;;;3.88;1.40;;;;;;;;;;509742;29;1544;-83
2022/07/26 01:22:37;;;;;;;3.30;1.27;;;;;;;;;;510732;29;1519;-83
2022/07/26 01:22:52;;;;;;;3.28;1.27;;;;;;;;;;511135;29;818;-83
2022/07/26 01:23:07;;;;;;;4.37;1.33;;;;;;;;;;508954;29;1254;-83
2022/07/26 01:23:24;;;;;;;4.47;1.30;;;;;;;;;;508399;29;1939;-83
2022/07/26 01:23:40;;;;;;;3.30;1.30;;;;;;;;;;505083;29;1226;-83
2022/07/26 01:23:56;;;;;;;3.53;1.42;;;;;;;;;;507186;29;1306;-83
2022/07/26 01:24:12;;;;;;;4.25;1.40;;;;;;;;;;509365;29;920;-83
2022/07/26 01:24:27;;;;;;;4.25;1.33;;;;;;;;;;510938;29;1205;-83
2022/07/26 01:24:43;;;;;;;4.30;1.40;;;;;;;;;;511032;29;1315;-83
2022/07/26 01:24:58;;;;;;;5.32;1.48;;;;;;;;;;510135;29;1185;-83
2022/07/26 01:25:14;;;;;;;4.77;1.50;;;;;;;;;;508666;29;964;-83
2022/07/26 01:25:31;;;;;;;3.90;1.50;;;;;;;;;;509599;29;1146;-83
2022/07/26 01:25:46;;;;;;;3.65;1.45;;;;;;;;;;509534;29;1261;-83
2022/07/26 01:26:02;;;;;;;3.67;1.47;;;;;;;;;;510721;29;1328;-83
2022/07/26 01:26:18;;;;;;;4.47;1.48;;;;;;;;;;510328;29;1486;-83
2022/07/26 01:26:33;;;;;;;4.60;1.50;;;;;;;;;;509970;29;1047;-83
2022/07/26 01:26:49;;;;;;;4.23;1.50;;;;;;;;;;508573;29;1327;-83
2022/07/26 01:27:04;;;;;;;6.33;1.60;;;;;;;;;;509278;29;1264;-83
2022/07/26 01:27:20;;;;;;;6.07;1.60;;;;;;;;;;509636;29;830;-83
2022/07/26 01:27:38;;;;;;;3.70;1.40;;;;;;;;;;510885;29;1301;-83
2022/07/26 01:27:53;;;;;;;3.30;1.40;;;;;;;;;;511137;29;951;-83
2022/07/26 01:28:08;;;;;;;3.40;1.35;;;;;;;;;;514009;28;924;-83
2022/07/26 01:28:25;;;;;;;3.80;1.40;;;;;;;;;;513148;29;1343;-83
2022/07/26 01:28:41;;;;;;;4.88;1.50;;;;;;;;;;511870;29;947;-83
2022/07/26 01:28:56;;;;;;;4.18;1.42;;;;;;;;;;510946;29;1251;-83
2022/07/26 01:29:12;;;;;;;3.35;1.33;;;;;;;;;;510938;29;881;-83
2022/07/26 01:29:27;;;;;;;2.83;1.20;;;;;;;;;;508669;29;1333;-83
2022/07/26 01:29:43;;;;;;;3.00;1.20;;;;;;;;;;509197;29;1039;-83
2022/07/26 01:29:58;;;;;;;4.28;1.50;;;;;;;;;;508906;29;857;-83
2022/07/26 01:30:14;;;;;;;4.20;1.50;;;;;;;;;;511230;29;1269;-82
2022/07/26 01:30:29;;;;;;;3.80;1.20;;;;;;;;;;510706;29;1308;-82
2022/07/26 01:30:45;;;;;;;3.45;1.20;;;;;;;;;;511537;29;802;-82
2022/07/26 01:31:00;;;;;;;2.90;1.33;;;;;;;;;;508636;29;1284;-82
2022/07/26 01:31:16;;;;;;;3.25;1.40;;;;;;;;;;507047;29;1326;-82
2022/07/26 01:31:31;;;;;;;4.00;1.30;;;;;;;;;;506591;29;1356;-82
2022/07/26 01:31:47;;;;;;;3.63;1.30;;;;;;;;;;506611;29;1346;-82
2022/07/26 01:32:04;;;;;;;3.05;1.30;;;;;;;;;;505947;29;1340;-82
2022/07/26 01:32:19;;;;;;;3.85;1.20;;;;;;;;;;507224;29;1457;-82
2022/07/26 01:32:35;;;;;;;4.20;1.30;;;;;;;;;;506956;29;1467;-82
2022/07/26 01:32:50;;;;;;;3.88;1.30;;;;;;;;;;507306;29;929;-82
2022/07/26 01:33:06;;;;;;;4.30;1.30;;;;;;;;;;509270;29;1260;-82
2022/07/26 01:33:21;;;;;;;4.90;1.40;;;;;;;;;;511352;29;1327;-82
2022/07/26 01:33:37;;;;;;;4.70;1.50;;;;;;;;;;511667;29;1357;-82
2022/07/26 01:33:52;;;;;;;4.27;1.50;;;;;;;;;;512896;29;896;-82
2022/07/26 01:34:08;;;;;;;4.18;1.55;;;;;;;;;;512754;29;853;-82
2022/07/26 01:34:23;;;;;;;3.57;1.53;;;;;;;;;;512349;29;1300;-82
2022/07/26 01:34:38;;;;;;;3.20;1.40;;;;;;;;;;512731;29;916;-82
2022/07/26 01:34:54;;;;;;;4.05;1.40;;;;;;;;;;511448;29;1299;-82
2022/07/26 01:35:09;;;;;;;4.33;1.33;;;;;;;;;;513027;28;987;-82
2022/07/26 01:35:25;;;;;;;3.60;1.20;;;;;;;;;;514544;28;1228;-82
2022/07/26 01:35:40;;;;;;;2.67;1.20;;;;;;;;;;514594;28;1149;-82
2022/07/26 01:35:56;;;;;;;3.28;1.40;;;;;;;;;;514875;28;1221;-82
2022/07/26 01:36:17;;;;;;;4.33;1.40;;;;;;;;;;512393;29;1234;-82
2022/07/26 01:36:32;;;;;;;3.85;1.50;;;;;;;;;;511185;29;932;-82
2022/07/26 01:36:49;;;;;;;3.50;1.50;;;;;;;;;;508993;29;1202;-82
2022/07/26 01:37:04;;;;;;;3.50;1.38;;;;;;;;;;510772;29;952;-82
2022/07/26 01:37:20;;;;;;;3.08;1.30;;;;;;;;;;509077;29;1324;-82
2022/07/26 01:37:35;;;;;;;2.67;1.30;;;;;;;;;;507714;29;936;-82
2022/07/26 01:37:51;;;;;;;3.63;1.38;;;;;;;;;;508164;29;842;-82
2022/07/26 01:38:06;;;;;;;3.53;1.40;;;;;;;;;;510259;29;1512;-82
2022/07/26 01:38:22;;;;;;;2.67;1.30;;;;;;;;;;508855;29;1409;-82
2022/07/26 01:38:39;;;;;;;3.30;1.20;;;;;;;;;;509520;29;884;-83
2022/07/26 01:38:54;;;;;;;4.30;1.38;;;;;;;;;;508645;29;1388;-83
2022/07/26 01:39:09;;;;;;;4.83;1.47;;;;;;;;;;509176;29;1183;-83